sensor_id;sensor_type;location;lat;lon;timestamp;P1;durP1;ratioP1;P2;durP2;ratioP2
20480;SDS011;10399;50.754;3.366;2023-02-15T00:02:00;84.45;;;43.05;;
20480;SDS011;10399;50.754;3.366;2023-02-15T00:04:28;87.95;;;42.97;;
20480;SDS011;10399;50.754;3.366;2023-02-15T00:07:13;82.32;;;42.30;;
20480;SDS011;10399;50.754;3.366;2023-02-15T00:09:45;80.78;;;40.25;;
20480;SDS011;10399;50.754;3.366;2023-02-15T00:12:13;87.78;;;41.13;;
20480;SDS011;10399;50.754;3.366;2023-02-15T00:14:42;80.97;;;40.67;;
20480;SDS011;10399;50.754;3.366;2023-02-15T00:17:09;75.68;;;39.78;;
20480;SDS011;10399;50.754;3.366;2023-02-15T00:19:37;79.65;;;40.03;;
20480;SDS011;10399;50.754;3.366;2023-02-15T00:22:04;71.45;;;39.55;;
20480;SDS011;10399;50.754;3.366;2023-02-15T00:24:31;76.63;;;38.88;;
20480;SDS011;10399;50.754;3.366;2023-02-15T00:26:58;76.80;;;39.63;;
20480;SDS011;10399;50.754;3.366;2023-02-15T00:29:25;78.80;;;38.95;;
20480;SDS011;10399;50.754;3.366;2023-02-15T00:31:52;79.25;;;39.20;;
20480;SDS011;10399;50.754;3.366;2023-02-15T00:34:21;78.57;;;38.67;;
20480;SDS011;10399;50.754;3.366;2023-02-15T00:36:49;76.97;;;40.25;;
20480;SDS011;10399;50.754;3.366;2023-02-15T00:39:17;87.43;;;41.55;;
20480;SDS011;10399;50.754;3.366;2023-02-15T00:41:44;82.90;;;40.15;;
20480;SDS011;10399;50.754;3.366;2023-02-15T00:44:12;81.72;;;40.85;;
20480;SDS011;10399;50.754;3.366;2023-02-15T00:46:40;83.47;;;40.55;;
20480;SDS011;10399;50.754;3.366;2023-02-15T00:49:07;77.40;;;41.38;;
20480;SDS011;10399;50.754;3.366;2023-02-15T00:51:34;85.47;;;40.28;;
20480;SDS011;10399;50.754;3.366;2023-02-15T00:54:01;82.30;;;40.17;;
20480;SDS011;10399;50.754;3.366;2023-02-15T00:56:28;87.60;;;42.65;;
20480;SDS011;10399;50.754;3.366;2023-02-15T00:58:55;87.35;;;42.17;;
20480;SDS011;10399;50.754;3.366;2023-02-15T01:01:22;83.15;;;41.17;;
20480;SDS011;10399;50.754;3.366;2023-02-15T01:03:50;76.13;;;40.22;;
20480;SDS011;10399;50.754;3.366;2023-02-15T01:06:17;78.80;;;39.05;;
20480;SDS011;10399;50.754;3.366;2023-02-15T01:08:45;79.25;;;40.33;;
20480;SDS011;10399;50.754;3.366;2023-02-15T01:11:17;83.10;;;41.08;;
20480;SDS011;10399;50.754;3.366;2023-02-15T01:13:53;89.57;;;39.65;;
20480;SDS011;10399;50.754;3.366;2023-02-15T01:16:21;86.63;;;41.13;;
20480;SDS011;10399;50.754;3.366;2023-02-15T01:18:49;87.50;;;40.95;;
20480;SDS011;10399;50.754;3.366;2023-02-15T01:21:18;82.88;;;41.83;;
20480;SDS011;10399;50.754;3.366;2023-02-15T01:23:46;85.57;;;42.50;;
20480;SDS011;10399;50.754;3.366;2023-02-15T01:26:13;82.78;;;41.75;;
20480;SDS011;10399;50.754;3.366;2023-02-15T01:28:40;88.15;;;42.47;;
20480;SDS011;10399;50.754;3.366;2023-02-15T01:31:09;86.15;;;43.45;;
20480;SDS011;10399;50.754;3.366;2023-02-15T01:33:37;91.57;;;43.08;;
20480;SDS011;10399;50.754;3.366;2023-02-15T01:36:05;84.85;;;41.47;;
20480;SDS011;10399;50.754;3.366;2023-02-15T01:38:32;92.43;;;43.08;;
20480;SDS011;10399;50.754;3.366;2023-02-15T01:41:01;84.68;;;42.97;;
20480;SDS011;10399;50.754;3.366;2023-02-15T01:43:57;99.53;;;46.42;;
20480;SDS011;10399;50.754;3.366;2023-02-15T01:46:30;92.25;;;43.88;;
20480;SDS011;10399;50.754;3.366;2023-02-15T01:49:11;79.75;;;40.67;;
20480;SDS011;10399;50.754;3.366;2023-02-15T01:51:43;91.10;;;43.03;;
20480;SDS011;10399;50.754;3.366;2023-02-15T01:54:15;86.10;;;43.75;;
20480;SDS011;10399;50.754;3.366;2023-02-15T01:56:58;87.25;;;42.83;;
20480;SDS011;10399;50.754;3.366;2023-02-15T01:59:29;87.20;;;42.90;;
20480;SDS011;10399;50.754;3.366;2023-02-15T02:01:59;82.53;;;41.45;;
20480;SDS011;10399;50.754;3.366;2023-02-15T02:04:33;93.07;;;43.88;;
20480;SDS011;10399;50.754;3.366;2023-02-15T02:07:06;76.18;;;40.00;;
20480;SDS011;10399;50.754;3.366;2023-02-15T02:09:34;76.55;;;40.45;;
20480;SDS011;10399;50.754;3.366;2023-02-15T02:12:03;81.50;;;40.67;;
20480;SDS011;10399;50.754;3.366;2023-02-15T02:14:30;84.95;;;40.88;;
20480;SDS011;10399;50.754;3.366;2023-02-15T02:17:00;79.13;;;39.28;;
20480;SDS011;10399;50.754;3.366;2023-02-15T02:31:24;79.70;;;39.78;;
20480;SDS011;10399;50.754;3.366;2023-02-15T02:34:43;84.72;;;38.35;;
20480;SDS011;10399;50.754;3.366;2023-02-15T02:45:09;83.75;;;39.58;;
20480;SDS011;10399;50.754;3.366;2023-02-15T02:47:43;81.07;;;39.35;;
20480;SDS011;10399;50.754;3.366;2023-02-15T02:50:23;75.95;;;38.13;;
20480;SDS011;10399;50.754;3.366;2023-02-15T02:52:53;84.35;;;39.88;;
20480;SDS011;10399;50.754;3.366;2023-02-15T02:55:30;87.75;;;41.65;;
20480;SDS011;10399;50.754;3.366;2023-02-15T03:00:25;81.50;;;40.45;;
20480;SDS011;10399;50.754;3.366;2023-02-15T03:02:59;86.93;;;42.25;;
20480;SDS011;10399;50.754;3.366;2023-02-15T03:05:32;97.00;;;44.97;;
20480;SDS011;10399;50.754;3.366;2023-02-15T03:08:02;86.95;;;42.42;;
20480;SDS011;10399;50.754;3.366;2023-02-15T03:10:32;88.53;;;42.55;;
20480;SDS011;10399;50.754;3.366;2023-02-15T03:13:01;91.40;;;42.22;;
20480;SDS011;10399;50.754;3.366;2023-02-15T03:15:29;96.15;;;43.22;;
20480;SDS011;10399;50.754;3.366;2023-02-15T03:18:33;101.28;;;44.80;;
20480;SDS011;10399;50.754;3.366;2023-02-15T03:21:04;98.88;;;44.72;;
20480;SDS011;10399;50.754;3.366;2023-02-15T03:23:33;89.65;;;42.15;;
20480;SDS011;10399;50.754;3.366;2023-02-15T03:26:04;91.95;;;43.22;;
20480;SDS011;10399;50.754;3.366;2023-02-15T03:28:35;98.03;;;44.70;;
20480;SDS011;10399;50.754;3.366;2023-02-15T03:31:07;95.57;;;44.70;;
20480;SDS011;10399;50.754;3.366;2023-02-15T03:33:37;90.10;;;44.65;;
20480;SDS011;10399;50.754;3.366;2023-02-15T03:36:13;88.47;;;41.78;;
20480;SDS011;10399;50.754;3.366;2023-02-15T03:38:51;84.15;;;40.65;;
20480;SDS011;10399;50.754;3.366;2023-02-15T03:41:26;78.57;;;39.30;;
20480;SDS011;10399;50.754;3.366;2023-02-15T03:44:07;87.38;;;40.05;;
20480;SDS011;10399;50.754;3.366;2023-02-15T03:46:43;77.28;;;38.72;;
20480;SDS011;10399;50.754;3.366;2023-02-15T03:49:22;83.50;;;40.40;;
20480;SDS011;10399;50.754;3.366;2023-02-15T03:51:51;86.25;;;40.88;;
20480;SDS011;10399;50.754;3.366;2023-02-15T03:54:22;79.40;;;40.08;;
20480;SDS011;10399;50.754;3.366;2023-02-15T03:57:15;84.38;;;39.28;;
20480;SDS011;10399;50.754;3.366;2023-02-15T04:00:09;75.38;;;37.22;;
20480;SDS011;10399;50.754;3.366;2023-02-15T04:05:50;81.63;;;41.35;;
20480;SDS011;10399;50.754;3.366;2023-02-15T04:08:17;79.43;;;37.75;;
20480;SDS011;10399;50.754;3.366;2023-02-15T04:10:44;75.32;;;38.50;;
20480;SDS011;10399;50.754;3.366;2023-02-15T04:13:31;80.43;;;37.90;;
20480;SDS011;10399;50.754;3.366;2023-02-15T04:15:58;83.20;;;40.25;;
20480;SDS011;10399;50.754;3.366;2023-02-15T04:18:51;93.63;;;41.40;;
20480;SDS011;10399;50.754;3.366;2023-02-15T04:21:36;74.82;;;37.92;;
20480;SDS011;10399;50.754;3.366;2023-02-15T04:24:22;84.45;;;39.05;;
20480;SDS011;10399;50.754;3.366;2023-02-15T04:27:07;82.50;;;39.50;;
20480;SDS011;10399;50.754;3.366;2023-02-15T04:29:35;78.72;;;38.35;;
20480;SDS011;10399;50.754;3.366;2023-02-15T04:32:01;74.43;;;37.30;;
20480;SDS011;10399;50.754;3.366;2023-02-15T04:34:28;76.05;;;38.22;;
20480;SDS011;10399;50.754;3.366;2023-02-15T04:36:56;76.47;;;37.58;;
20480;SDS011;10399;50.754;3.366;2023-02-15T04:39:23;78.22;;;38.38;;
20480;SDS011;10399;50.754;3.366;2023-02-15T04:41:49;73.65;;;36.63;;
20480;SDS011;10399;50.754;3.366;2023-02-15T04:44:16;78.07;;;38.40;;
20480;SDS011;10399;50.754;3.366;2023-02-15T04:46:43;81.72;;;38.13;;
20480;SDS011;10399;50.754;3.366;2023-02-15T04:49:10;77.90;;;39.50;;
20480;SDS011;10399;50.754;3.366;2023-02-15T04:51:37;77.95;;;37.97;;
20480;SDS011;10399;50.754;3.366;2023-02-15T04:54:04;77.68;;;37.83;;
20480;SDS011;10399;50.754;3.366;2023-02-15T04:56:31;81.75;;;38.25;;
20480;SDS011;10399;50.754;3.366;2023-02-15T04:59:01;81.55;;;38.33;;
20480;SDS011;10399;50.754;3.366;2023-02-15T05:01:27;84.47;;;40.33;;
20480;SDS011;10399;50.754;3.366;2023-02-15T05:03:55;79.13;;;38.15;;
20480;SDS011;10399;50.754;3.366;2023-02-15T05:06:22;82.10;;;39.22;;
20480;SDS011;10399;50.754;3.366;2023-02-15T05:08:49;84.18;;;38.15;;
20480;SDS011;10399;50.754;3.366;2023-02-15T05:11:16;74.38;;;37.10;;
20480;SDS011;10399;50.754;3.366;2023-02-15T05:13:43;77.53;;;38.83;;
20480;SDS011;10399;50.754;3.366;2023-02-15T05:16:10;78.43;;;37.97;;
20480;SDS011;10399;50.754;3.366;2023-02-15T05:18:37;75.25;;;36.75;;
20480;SDS011;10399;50.754;3.366;2023-02-15T05:21:04;75.05;;;36.80;;
20480;SDS011;10399;50.754;3.366;2023-02-15T05:23:31;77.93;;;38.15;;
20480;SDS011;10399;50.754;3.366;2023-02-15T05:25:58;79.78;;;36.67;;
20480;SDS011;10399;50.754;3.366;2023-02-15T05:28:43;70.47;;;34.80;;
20480;SDS011;10399;50.754;3.366;2023-02-15T05:31:12;74.93;;;36.28;;
20480;SDS011;10399;50.754;3.366;2023-02-15T05:33:41;71.60;;;35.22;;
20480;SDS011;10399;50.754;3.366;2023-02-15T05:36:08;75.93;;;37.92;;
20480;SDS011;10399;50.754;3.366;2023-02-15T05:38:39;72.93;;;34.13;;
20480;SDS011;10399;50.754;3.366;2023-02-15T05:41:06;87.10;;;37.88;;
20480;SDS011;10399;50.754;3.366;2023-02-15T05:43:37;68.55;;;34.60;;
20480;SDS011;10399;50.754;3.366;2023-02-15T05:46:05;69.63;;;35.00;;
20480;SDS011;10399;50.754;3.366;2023-02-15T05:48:33;67.03;;;33.67;;
20480;SDS011;10399;50.754;3.366;2023-02-15T05:51:05;68.82;;;33.90;;
20480;SDS011;10399;50.754;3.366;2023-02-15T05:53:37;72.40;;;35.80;;
20480;SDS011;10399;50.754;3.366;2023-02-15T05:56:06;78.57;;;36.55;;
20480;SDS011;10399;50.754;3.366;2023-02-15T05:58:36;72.53;;;35.35;;
20480;SDS011;10399;50.754;3.366;2023-02-15T06:01:14;76.30;;;36.03;;
20480;SDS011;10399;50.754;3.366;2023-02-15T06:03:44;76.50;;;36.92;;
20480;SDS011;10399;50.754;3.366;2023-02-15T06:06:14;78.53;;;37.50;;
20480;SDS011;10399;50.754;3.366;2023-02-15T06:08:44;83.45;;;37.40;;
20480;SDS011;10399;50.754;3.366;2023-02-15T06:11:11;82.80;;;38.22;;
20480;SDS011;10399;50.754;3.366;2023-02-15T06:13:39;82.63;;;37.67;;
20480;SDS011;10399;50.754;3.366;2023-02-15T06:16:06;78.97;;;39.17;;
20480;SDS011;10399;50.754;3.366;2023-02-15T06:18:33;81.45;;;38.13;;
20480;SDS011;10399;50.754;3.366;2023-02-15T06:21:01;78.25;;;38.42;;
20480;SDS011;10399;50.754;3.366;2023-02-15T06:23:28;80.10;;;37.85;;
20480;SDS011;10399;50.754;3.366;2023-02-15T06:25:55;74.30;;;36.80;;
20480;SDS011;10399;50.754;3.366;2023-02-15T06:28:22;76.25;;;37.20;;
20480;SDS011;10399;50.754;3.366;2023-02-15T06:30:49;84.13;;;38.30;;
20480;SDS011;10399;50.754;3.366;2023-02-15T06:33:16;87.45;;;42.10;;
20480;SDS011;10399;50.754;3.366;2023-02-15T06:35:43;78.35;;;37.30;;
20480;SDS011;10399;50.754;3.366;2023-02-15T06:38:11;76.47;;;38.22;;
20480;SDS011;10399;50.754;3.366;2023-02-15T06:40:38;79.10;;;38.55;;
20480;SDS011;10399;50.754;3.366;2023-02-15T06:43:05;76.97;;;36.42;;
20480;SDS011;10399;50.754;3.366;2023-02-15T06:45:31;86.87;;;48.27;;
20480;SDS011;10399;50.754;3.366;2023-02-15T06:47:58;83.05;;;39.92;;
20480;SDS011;10399;50.754;3.366;2023-02-15T06:50:25;81.97;;;36.78;;
20480;SDS011;10399;50.754;3.366;2023-02-15T06:52:56;69.47;;;36.38;;
20480;SDS011;10399;50.754;3.366;2023-02-15T06:55:23;80.68;;;37.28;;
20480;SDS011;10399;50.754;3.366;2023-02-15T06:57:50;76.15;;;37.97;;
20480;SDS011;10399;50.754;3.366;2023-02-15T07:00:18;70.60;;;35.58;;
20480;SDS011;10399;50.754;3.366;2023-02-15T07:02:45;87.10;;;36.97;;
20480;SDS011;10399;50.754;3.366;2023-02-15T07:05:12;75.22;;;36.20;;
20480;SDS011;10399;50.754;3.366;2023-02-15T07:07:39;78.10;;;36.80;;
20480;SDS011;10399;50.754;3.366;2023-02-15T07:10:06;69.80;;;33.80;;
20480;SDS011;10399;50.754;3.366;2023-02-15T07:12:33;72.22;;;36.70;;
20480;SDS011;10399;50.754;3.366;2023-02-15T07:15:13;71.03;;;35.45;;
20480;SDS011;10399;50.754;3.366;2023-02-15T07:17:42;78.68;;;36.45;;
20480;SDS011;10399;50.754;3.366;2023-02-15T07:20:11;74.32;;;36.95;;
20480;SDS011;10399;50.754;3.366;2023-02-15T07:22:40;68.80;;;34.17;;
20480;SDS011;10399;50.754;3.366;2023-02-15T07:25:08;69.72;;;34.83;;
20480;SDS011;10399;50.754;3.366;2023-02-15T07:27:36;78.00;;;36.30;;
20480;SDS011;10399;50.754;3.366;2023-02-15T07:30:03;78.82;;;36.30;;
20480;SDS011;10399;50.754;3.366;2023-02-15T07:32:32;81.30;;;36.70;;
20480;SDS011;10399;50.754;3.366;2023-02-15T07:34:59;73.45;;;34.03;;
20480;SDS011;10399;50.754;3.366;2023-02-15T07:37:27;76.13;;;36.35;;
20480;SDS011;10399;50.754;3.366;2023-02-15T07:39:54;71.10;;;36.92;;
20480;SDS011;10399;50.754;3.366;2023-02-15T07:42:21;77.03;;;35.80;;
20480;SDS011;10399;50.754;3.366;2023-02-15T07:44:48;72.88;;;35.45;;
20480;SDS011;10399;50.754;3.366;2023-02-15T07:47:15;75.43;;;36.08;;
20480;SDS011;10399;50.754;3.366;2023-02-15T07:49:42;81.32;;;37.08;;
20480;SDS011;10399;50.754;3.366;2023-02-15T07:52:10;70.70;;;35.42;;
20480;SDS011;10399;50.754;3.366;2023-02-15T07:54:37;72.63;;;36.22;;
20480;SDS011;10399;50.754;3.366;2023-02-15T07:57:04;73.93;;;35.47;;
20480;SDS011;10399;50.754;3.366;2023-02-15T07:59:31;78.95;;;36.72;;
20480;SDS011;10399;50.754;3.366;2023-02-15T08:01:59;76.55;;;36.55;;
20480;SDS011;10399;50.754;3.366;2023-02-15T08:04:27;83.28;;;37.38;;
20480;SDS011;10399;50.754;3.366;2023-02-15T08:06:54;76.13;;;35.58;;
20480;SDS011;10399;50.754;3.366;2023-02-15T08:09:23;73.65;;;37.90;;
20480;SDS011;10399;50.754;3.366;2023-02-15T08:11:50;76.22;;;37.53;;
20480;SDS011;10399;50.754;3.366;2023-02-15T08:14:18;89.70;;;37.28;;
20480;SDS011;10399;50.754;3.366;2023-02-15T08:16:47;72.35;;;34.90;;
20480;SDS011;10399;50.754;3.366;2023-02-15T08:21:52;76.50;;;37.33;;
20480;SDS011;10399;50.754;3.366;2023-02-15T08:24:21;83.15;;;35.83;;
20480;SDS011;10399;50.754;3.366;2023-02-15T08:26:49;73.85;;;35.42;;
20480;SDS011;10399;50.754;3.366;2023-02-15T08:29:18;75.45;;;36.45;;
20480;SDS011;10399;50.754;3.366;2023-02-15T08:31:48;78.93;;;38.22;;
20480;SDS011;10399;50.754;3.366;2023-02-15T08:34:19;76.47;;;36.40;;
20480;SDS011;10399;50.754;3.366;2023-02-15T08:36:47;83.82;;;35.45;;
20480;SDS011;10399;50.754;3.366;2023-02-15T08:39:14;80.03;;;34.35;;
20480;SDS011;10399;50.754;3.366;2023-02-15T08:41:42;75.00;;;36.33;;
20480;SDS011;10399;50.754;3.366;2023-02-15T08:44:11;77.32;;;36.95;;
20480;SDS011;10399;50.754;3.366;2023-02-15T08:46:39;73.20;;;35.88;;
20480;SDS011;10399;50.754;3.366;2023-02-15T08:49:08;66.28;;;34.78;;
20480;SDS011;10399;50.754;3.366;2023-02-15T08:51:38;73.35;;;36.05;;
20480;SDS011;10399;50.754;3.366;2023-02-15T08:54:07;76.00;;;35.90;;
20480;SDS011;10399;50.754;3.366;2023-02-15T08:56:36;68.43;;;34.95;;
20480;SDS011;10399;50.754;3.366;2023-02-15T08:59:05;75.00;;;34.50;;
20480;SDS011;10399;50.754;3.366;2023-02-15T09:01:36;73.32;;;35.28;;
20480;SDS011;10399;50.754;3.366;2023-02-15T09:04:04;74.03;;;35.45;;
20480;SDS011;10399;50.754;3.366;2023-02-15T09:06:35;77.65;;;35.88;;
20480;SDS011;10399;50.754;3.366;2023-02-15T09:09:03;79.38;;;34.88;;
20480;SDS011;10399;50.754;3.366;2023-02-15T09:11:33;77.05;;;34.85;;
20480;SDS011;10399;50.754;3.366;2023-02-15T09:14:06;69.90;;;35.08;;
20480;SDS011;10399;50.754;3.366;2023-02-15T09:16:36;70.88;;;33.85;;
20480;SDS011;10399;50.754;3.366;2023-02-15T09:19:06;68.40;;;34.22;;
20480;SDS011;10399;50.754;3.366;2023-02-15T09:21:37;67.03;;;34.00;;
20480;SDS011;10399;50.754;3.366;2023-02-15T09:24:05;61.55;;;32.90;;
20480;SDS011;10399;50.754;3.366;2023-02-15T09:26:35;63.78;;;33.08;;
20480;SDS011;10399;50.754;3.366;2023-02-15T09:29:05;63.33;;;31.40;;
20480;SDS011;10399;50.754;3.366;2023-02-15T09:31:34;71.05;;;32.38;;
20480;SDS011;10399;50.754;3.366;2023-02-15T09:34:16;60.45;;;32.25;;
20480;SDS011;10399;50.754;3.366;2023-02-15T09:36:44;69.40;;;32.80;;
20480;SDS011;10399;50.754;3.366;2023-02-15T09:55:14;66.53;;;33.15;;
20480;SDS011;10399;50.754;3.366;2023-02-15T09:57:52;77.28;;;32.08;;
20480;SDS011;10399;50.754;3.366;2023-02-15T10:03:33;68.13;;;30.77;;
20480;SDS011;10399;50.754;3.366;2023-02-15T10:06:21;56.88;;;29.13;;
20480;SDS011;10399;50.754;3.366;2023-02-15T10:12:04;62.75;;;31.45;;
20480;SDS011;10399;50.754;3.366;2023-02-15T10:20:08;56.15;;;30.13;;
20480;SDS011;10399;50.754;3.366;2023-02-15T10:23:08;56.78;;;29.83;;
20480;SDS011;10399;50.754;3.366;2023-02-15T10:26:01;64.47;;;30.55;;
20480;SDS011;10399;50.754;3.366;2023-02-15T10:28:48;63.45;;;30.20;;
20480;SDS011;10399;50.754;3.366;2023-02-15T10:31:28;65.85;;;30.50;;
20480;SDS011;10399;50.754;3.366;2023-02-15T10:34:18;63.00;;;31.65;;
20480;SDS011;10399;50.754;3.366;2023-02-15T10:39:38;65.72;;;31.05;;
20480;SDS011;10399;50.754;3.366;2023-02-15T10:42:19;60.05;;;31.52;;
20480;SDS011;10399;50.754;3.366;2023-02-15T10:48:16;63.10;;;32.00;;
20480;SDS011;10399;50.754;3.366;2023-02-15T10:50:53;72.93;;;32.30;;
20480;SDS011;10399;50.754;3.366;2023-02-15T10:53:30;54.92;;;30.25;;
20480;SDS011;10399;50.754;3.366;2023-02-15T10:56:20;58.33;;;29.70;;
20480;SDS011;10399;50.754;3.366;2023-02-15T11:01:57;62.42;;;30.67;;
20480;SDS011;10399;50.754;3.366;2023-02-15T11:07:33;56.53;;;30.65;;
20480;SDS011;10399;50.754;3.366;2023-02-15T11:13:10;48.35;;;25.60;;
20480;SDS011;10399;50.754;3.366;2023-02-15T11:23:59;57.08;;;31.27;;
20480;SDS011;10399;50.754;3.366;2023-02-15T11:26:28;65.63;;;31.08;;
20480;SDS011;10399;50.754;3.366;2023-02-15T11:31:50;56.17;;;30.88;;
20480;SDS011;10399;50.754;3.366;2023-02-15T11:34:47;58.30;;;31.55;;
20480;SDS011;10399;50.754;3.366;2023-02-15T11:37:17;54.63;;;29.73;;
20480;SDS011;10399;50.754;3.366;2023-02-15T11:39:49;55.47;;;30.52;;
20480;SDS011;10399;50.754;3.366;2023-02-15T11:42:21;65.97;;;30.42;;
20480;SDS011;10399;50.754;3.366;2023-02-15T11:45:37;59.17;;;31.55;;
20480;SDS011;10399;50.754;3.366;2023-02-15T11:47:55;63.27;;;34.57;;
20480;SDS011;10399;50.754;3.366;2023-02-15T11:50:24;70.28;;;33.83;;
20480;SDS011;10399;50.754;3.366;2023-02-15T11:52:58;63.15;;;33.05;;
20480;SDS011;10399;50.754;3.366;2023-02-15T11:55:28;67.25;;;34.60;;
20480;SDS011;10399;50.754;3.366;2023-02-15T11:58:00;59.35;;;32.35;;
20480;SDS011;10399;50.754;3.366;2023-02-15T12:00:49;53.83;;;30.55;;
20480;SDS011;10399;50.754;3.366;2023-02-15T12:03:40;59.15;;;30.27;;
20480;SDS011;10399;50.754;3.366;2023-02-15T12:06:19;55.13;;;30.67;;
20480;SDS011;10399;50.754;3.366;2023-02-15T12:08:59;57.08;;;32.55;;
20480;SDS011;10399;50.754;3.366;2023-02-15T12:11:42;65.40;;;34.08;;
20480;SDS011;10399;50.754;3.366;2023-02-15T12:14:10;63.45;;;32.22;;
20480;SDS011;10399;50.754;3.366;2023-02-15T12:19:13;54.35;;;30.83;;
20480;SDS011;10399;50.754;3.366;2023-02-15T12:21:53;58.28;;;31.75;;
20480;SDS011;10399;50.754;3.366;2023-02-15T12:24:25;60.78;;;31.48;;
20480;SDS011;10399;50.754;3.366;2023-02-15T12:29:25;57.60;;;31.42;;
20480;SDS011;10399;50.754;3.366;2023-02-15T12:31:56;58.78;;;36.60;;
20480;SDS011;10399;50.754;3.366;2023-02-15T12:34:25;57.50;;;33.47;;
20480;SDS011;10399;50.754;3.366;2023-02-15T12:36:57;56.05;;;31.85;;
20480;SDS011;10399;50.754;3.366;2023-02-15T12:39:29;55.90;;;31.17;;
20480;SDS011;10399;50.754;3.366;2023-02-15T12:41:59;59.40;;;32.65;;
20480;SDS011;10399;50.754;3.366;2023-02-15T12:44:31;57.55;;;32.03;;
20480;SDS011;10399;50.754;3.366;2023-02-15T12:47:04;58.20;;;32.38;;
20480;SDS011;10399;50.754;3.366;2023-02-15T12:49:43;59.88;;;31.70;;
20480;SDS011;10399;50.754;3.366;2023-02-15T12:54:45;58.80;;;32.40;;
20480;SDS011;10399;50.754;3.366;2023-02-15T12:59:56;61.00;;;31.95;;
20480;SDS011;10399;50.754;3.366;2023-02-15T13:02:44;58.47;;;30.48;;
20480;SDS011;10399;50.754;3.366;2023-02-15T13:07:48;55.72;;;30.48;;
20480;SDS011;10399;50.754;3.366;2023-02-15T13:10:28;53.28;;;30.42;;
20480;SDS011;10399;50.754;3.366;2023-02-15T13:12:57;56.38;;;30.25;;
20480;SDS011;10399;50.754;3.366;2023-02-15T13:15:33;58.28;;;31.00;;
20480;SDS011;10399;50.754;3.366;2023-02-15T13:18:16;55.65;;;31.08;;
20480;SDS011;10399;50.754;3.366;2023-02-15T13:20:50;53.85;;;30.73;;
20480;SDS011;10399;50.754;3.366;2023-02-15T13:23:27;61.95;;;32.00;;
20480;SDS011;10399;50.754;3.366;2023-02-15T13:25:56;57.03;;;30.15;;
20480;SDS011;10399;50.754;3.366;2023-02-15T13:28:30;51.05;;;31.15;;
20480;SDS011;10399;50.754;3.366;2023-02-15T13:31:04;60.78;;;32.10;;
20480;SDS011;10399;50.754;3.366;2023-02-15T13:33:42;55.03;;;30.08;;
20480;SDS011;10399;50.754;3.366;2023-02-15T13:36:19;53.58;;;28.90;;
20480;SDS011;10399;50.754;3.366;2023-02-15T13:39:05;63.63;;;31.95;;
20480;SDS011;10399;50.754;3.366;2023-02-15T13:42:00;51.88;;;29.88;;
20480;SDS011;10399;50.754;3.366;2023-02-15T13:50:42;55.95;;;31.15;;
20480;SDS011;10399;50.754;3.366;2023-02-15T13:59:06;56.90;;;32.05;;
20480;SDS011;10399;50.754;3.366;2023-02-15T14:12:46;61.35;;;31.92;;
20480;SDS011;10399;50.754;3.366;2023-02-15T14:15:32;56.13;;;32.63;;
20480;SDS011;10399;50.754;3.366;2023-02-15T14:20:56;62.00;;;31.77;;
20480;SDS011;10399;50.754;3.366;2023-02-15T14:26:15;54.63;;;32.00;;
20480;SDS011;10399;50.754;3.366;2023-02-15T14:28:56;51.72;;;31.42;;
20480;SDS011;10399;50.754;3.366;2023-02-15T14:31:39;60.65;;;32.75;;
20480;SDS011;10399;50.754;3.366;2023-02-15T14:34:21;61.42;;;33.03;;
20480;SDS011;10399;50.754;3.366;2023-02-15T14:37:08;56.55;;;32.97;;
20480;SDS011;10399;50.754;3.366;2023-02-15T14:48:04;61.90;;;33.40;;
20480;SDS011;10399;50.754;3.366;2023-02-15T14:50:38;61.42;;;35.80;;
20480;SDS011;10399;50.754;3.366;2023-02-15T14:53:18;62.78;;;33.58;;
20480;SDS011;10399;50.754;3.366;2023-02-15T14:56:04;56.85;;;32.35;;
20480;SDS011;10399;50.754;3.366;2023-02-15T14:58:37;59.22;;;33.65;;
20480;SDS011;10399;50.754;3.366;2023-02-15T15:01:08;65.22;;;34.03;;
20480;SDS011;10399;50.754;3.366;2023-02-15T15:03:43;65.05;;;33.63;;
20480;SDS011;10399;50.754;3.366;2023-02-15T15:06:26;66.80;;;34.25;;
20480;SDS011;10399;50.754;3.366;2023-02-15T15:09:00;63.30;;;34.38;;
20480;SDS011;10399;50.754;3.366;2023-02-15T15:11:49;67.20;;;34.83;;
20480;SDS011;10399;50.754;3.366;2023-02-15T15:17:00;64.60;;;34.03;;
20480;SDS011;10399;50.754;3.366;2023-02-15T15:22:18;62.60;;;34.38;;
20480;SDS011;10399;50.754;3.366;2023-02-15T15:24:48;66.80;;;34.95;;
20480;SDS011;10399;50.754;3.366;2023-02-15T15:49:31;63.70;;;33.35;;
20480;SDS011;10399;50.754;3.366;2023-02-15T15:52:01;70.82;;;37.13;;
20480;SDS011;10399;50.754;3.366;2023-02-15T15:54:29;65.75;;;36.05;;
20480;SDS011;10399;50.754;3.366;2023-02-15T15:56:59;66.82;;;35.83;;
20480;SDS011;10399;50.754;3.366;2023-02-15T15:59:29;71.18;;;35.42;;
20480;SDS011;10399;50.754;3.366;2023-02-15T16:02:09;63.78;;;34.33;;
20480;SDS011;10399;50.754;3.366;2023-02-15T16:04:43;62.80;;;33.33;;
20480;SDS011;10399;50.754;3.366;2023-02-15T16:12:28;57.85;;;32.65;;
20480;SDS011;10399;50.754;3.366;2023-02-15T16:14:57;60.85;;;33.35;;
20480;SDS011;10399;50.754;3.366;2023-02-15T16:17:28;58.00;;;32.03;;
20480;SDS011;10399;50.754;3.366;2023-02-15T16:20:00;64.18;;;34.55;;
20480;SDS011;10399;50.754;3.366;2023-02-15T16:22:33;58.28;;;33.70;;
20480;SDS011;10399;50.754;3.366;2023-02-15T16:27:48;61.70;;;32.80;;
20480;SDS011;10399;50.754;3.366;2023-02-15T16:32:45;62.90;;;33.15;;
20480;SDS011;10399;50.754;3.366;2023-02-15T16:35:16;63.78;;;34.28;;
20480;SDS011;10399;50.754;3.366;2023-02-15T16:37:45;64.93;;;35.00;;
20480;SDS011;10399;50.754;3.366;2023-02-15T16:42:57;60.63;;;33.83;;
20480;SDS011;10399;50.754;3.366;2023-02-15T16:45:29;63.13;;;33.38;;
20480;SDS011;10399;50.754;3.366;2023-02-15T16:47:59;66.40;;;34.72;;
20480;SDS011;10399;50.754;3.366;2023-02-15T16:50:34;66.30;;;34.10;;
20480;SDS011;10399;50.754;3.366;2023-02-15T16:53:12;63.63;;;35.10;;
20480;SDS011;10399;50.754;3.366;2023-02-15T16:55:45;78.78;;;34.28;;
20480;SDS011;10399;50.754;3.366;2023-02-15T16:58:17;72.88;;;34.03;;
20480;SDS011;10399;50.754;3.366;2023-02-15T17:00:59;63.47;;;33.13;;
20480;SDS011;10399;50.754;3.366;2023-02-15T17:03:29;64.93;;;34.95;;
20480;SDS011;10399;50.754;3.366;2023-02-15T17:05:57;61.72;;;35.05;;
20480;SDS011;10399;50.754;3.366;2023-02-15T17:13:32;65.32;;;35.13;;
20480;SDS011;10399;50.754;3.366;2023-02-15T17:18:31;68.85;;;37.55;;
20480;SDS011;10399;50.754;3.366;2023-02-15T17:21:08;71.10;;;36.85;;
20480;SDS011;10399;50.754;3.366;2023-02-15T17:23:42;71.22;;;37.65;;
20480;SDS011;10399;50.754;3.366;2023-02-15T17:26:12;65.25;;;35.10;;
20480;SDS011;10399;50.754;3.366;2023-02-15T17:28:46;76.28;;;37.00;;
20480;SDS011;10399;50.754;3.366;2023-02-15T17:31:19;69.05;;;36.60;;
20480;SDS011;10399;50.754;3.366;2023-02-15T17:33:47;68.15;;;34.35;;
20480;SDS011;10399;50.754;3.366;2023-02-15T17:36:19;73.80;;;37.30;;
20480;SDS011;10399;50.754;3.366;2023-02-15T17:39:00;68.65;;;36.03;;
20480;SDS011;10399;50.754;3.366;2023-02-15T17:41:32;75.78;;;37.83;;
20480;SDS011;10399;50.754;3.366;2023-02-15T17:44:01;72.63;;;38.60;;
20480;SDS011;10399;50.754;3.366;2023-02-15T17:46:30;74.78;;;39.88;;
20480;SDS011;10399;50.754;3.366;2023-02-15T17:49:01;75.75;;;39.10;;
20480;SDS011;10399;50.754;3.366;2023-02-15T17:51:30;74.90;;;39.97;;